createdAt,value
2023-06-14T00:00:23.410Z,27.39
2023-06-14T00:01:23.424Z,27.38
2023-06-14T00:02:23.491Z,27.39
2023-06-14T00:03:23.542Z,27.39
2023-06-14T00:04:23.536Z,27.40
2023-06-14T00:05:23.503Z,27.38
2023-06-14T00:06:23.523Z,27.38
2023-06-14T00:07:23.550Z,27.38
2023-06-14T00:08:23.564Z,27.38
2023-06-14T00:09:23.575Z,27.39
2023-06-14T00:10:23.604Z,27.38
2023-06-14T00:11:23.619Z,27.38
2023-06-14T00:12:23.642Z,27.38
2023-06-14T00:13:23.659Z,27.37
2023-06-14T00:14:23.695Z,27.38
2023-06-14T00:15:23.699Z,27.38
2023-06-14T00:16:23.739Z,27.37
2023-06-14T00:17:23.758Z,27.37
2023-06-14T00:18:23.763Z,27.38
2023-06-14T00:19:23.776Z,27.37
2023-06-14T00:20:23.803Z,27.38
2023-06-14T00:21:23.837Z,27.37
2023-06-14T00:22:23.851Z,27.38
2023-06-14T00:23:23.867Z,27.37
2023-06-14T00:24:23.974Z,27.37
2023-06-14T00:25:28.787Z,27.37
2023-06-14T00:26:24.912Z,27.36
2023-06-14T00:27:23.893Z,27.37
2023-06-14T00:28:23.871Z,27.36
2023-06-14T00:29:23.849Z,27.36
2023-06-14T00:30:23.833Z,27.36
2023-06-14T00:31:23.821Z,27.36
2023-06-14T00:32:23.881Z,27.35
2023-06-14T00:33:23.783Z,27.36
2023-06-14T00:34:23.757Z,27.35
2023-06-14T00:35:23.740Z,27.36
2023-06-14T00:36:23.722Z,27.35
2023-06-14T00:37:23.706Z,27.35
2023-06-14T00:38:23.698Z,27.35
2023-06-14T00:39:23.680Z,27.35
2023-06-14T00:40:23.697Z,27.35
2023-06-14T00:41:23.712Z,27.35
2023-06-14T00:42:23.729Z,27.34
2023-06-14T00:43:23.753Z,27.35
2023-06-14T00:44:23.778Z,27.35
2023-06-14T00:45:23.802Z,27.35
2023-06-14T00:46:23.872Z,27.34
2023-06-14T00:47:23.841Z,27.34
2023-06-14T00:48:23.854Z,27.34
2023-06-14T00:49:23.869Z,27.34
2023-06-14T00:50:23.888Z,27.34
2023-06-14T00:51:23.920Z,27.34
2023-06-14T00:52:23.918Z,27.34
2023-06-14T00:53:23.936Z,27.33
2023-06-14T00:54:23.957Z,27.34
2023-06-14T00:55:23.976Z,27.34
2023-06-14T00:56:23.987Z,27.34
2023-06-14T00:57:23.994Z,27.34
2023-06-14T00:58:24.034Z,27.34
2023-06-14T00:59:24.044Z,27.33
2023-06-14T01:00:24.058Z,27.33
2023-06-14T01:01:24.119Z,27.33
2023-06-14T01:02:24.167Z,27.32
2023-06-14T01:03:24.319Z,27.32
2023-06-14T01:04:24.126Z,27.32
2023-06-14T01:05:24.154Z,27.33
2023-06-14T01:06:24.172Z,27.32
2023-06-14T01:07:24.195Z,27.31
2023-06-14T01:08:24.215Z,27.31
2023-06-14T01:09:24.229Z,27.32
2023-06-14T01:10:24.263Z,27.32
2023-06-14T01:11:24.283Z,27.31
2023-06-14T01:12:24.298Z,27.31
2023-06-14T01:13:24.320Z,27.31
2023-06-14T01:14:24.341Z,27.32
2023-06-14T01:15:24.385Z,27.31
2023-06-14T01:16:24.466Z,27.31
2023-06-14T01:17:24.450Z,27.32
2023-06-14T01:18:24.460Z,27.30
2023-06-14T01:19:24.471Z,27.30
2023-06-14T01:20:24.504Z,27.31
2023-06-14T01:21:24.500Z,27.30
2023-06-14T01:22:24.524Z,27.30
2023-06-14T01:23:24.540Z,27.30
2023-06-14T01:24:24.693Z,27.31
2023-06-14T01:25:24.608Z,27.29
2023-06-14T01:26:24.559Z,27.30
2023-06-14T01:27:24.568Z,27.29
2023-06-14T01:28:24.554Z,27.30
2023-06-14T01:29:24.574Z,27.30
2023-06-14T01:30:24.594Z,27.30
2023-06-14T01:31:24.605Z,27.29
2023-06-14T01:32:24.626Z,27.29
2023-06-14T01:33:24.664Z,27.30
2023-06-14T01:34:24.701Z,27.29
2023-06-14T01:35:24.707Z,27.29
2023-06-14T01:36:24.707Z,27.29
2023-06-14T01:37:24.710Z,27.28
2023-06-14T01:38:24.733Z,27.29
2023-06-14T01:39:24.759Z,27.28
2023-06-14T01:40:24.773Z,27.28
2023-06-14T01:41:24.788Z,27.28
2023-06-14T01:42:24.846Z,27.28
2023-06-14T01:43:24.833Z,27.28
2023-06-14T01:44:24.859Z,27.29
2023-06-14T01:45:24.866Z,27.27
2023-06-14T01:46:24.901Z,27.28
2023-06-14T01:47:24.923Z,27.28
2023-06-14T01:48:24.916Z,27.28
2023-06-14T01:49:24.938Z,27.28
2023-06-14T01:50:24.950Z,27.27
2023-06-14T01:51:24.988Z,27.27
2023-06-14T01:52:24.982Z,27.27
2023-06-14T01:53:25.009Z,27.27
2023-06-14T01:54:25.020Z,27.27
2023-06-14T01:55:25.037Z,27.27
2023-06-14T01:56:25.048Z,27.27
2023-06-14T01:57:25.098Z,27.26
2023-06-14T01:58:25.128Z,27.27
2023-06-14T01:59:25.124Z,27.27
2023-06-14T02:00:25.132Z,27.26
2023-06-14T02:01:25.189Z,27.26
2023-06-14T02:02:25.183Z,27.26
2023-06-14T02:03:25.223Z,27.27
2023-06-14T02:04:25.204Z,27.26
2023-06-14T02:05:25.313Z,27.26
2023-06-14T02:06:25.238Z,27.26
2023-06-14T02:07:25.280Z,27.25
2023-06-14T02:08:25.274Z,27.25
2023-06-14T02:09:25.288Z,27.26
2023-06-14T02:10:25.332Z,27.26
2023-06-14T02:11:25.335Z,27.25
2023-06-14T02:12:25.362Z,27.25
2023-06-14T02:13:25.389Z,27.25
2023-06-14T02:14:25.414Z,27.25
2023-06-14T02:15:25.446Z,27.24
2023-06-14T02:16:25.489Z,27.24
2023-06-14T02:17:25.508Z,27.24
2023-06-14T02:18:25.532Z,27.25
2023-06-14T02:19:25.542Z,27.24
2023-06-14T02:20:25.573Z,27.24
2023-06-14T02:21:25.588Z,27.24
2023-06-14T02:22:25.612Z,27.24
2023-06-14T02:23:25.637Z,27.24
2023-06-14T02:24:25.681Z,27.24
2023-06-14T02:25:25.708Z,27.24
2023-06-14T02:26:25.712Z,27.24
2023-06-14T02:27:25.732Z,27.24
2023-06-14T02:28:25.766Z,27.24
2023-06-14T02:29:25.820Z,27.23
2023-06-14T02:30:25.818Z,27.24
2023-06-14T02:31:25.878Z,27.24
2023-06-14T02:32:25.908Z,27.23
2023-06-14T02:33:25.899Z,27.23
2023-06-14T02:34:25.921Z,27.24
2023-06-14T02:35:25.935Z,27.23
2023-06-14T02:36:25.957Z,27.23
2023-06-14T02:37:25.976Z,27.23
2023-06-14T02:38:26.006Z,27.23
2023-06-14T02:39:26.013Z,27.23
2023-06-14T02:40:26.052Z,27.23
2023-06-14T02:41:26.083Z,27.23
2023-06-14T02:42:26.107Z,27.22
2023-06-14T02:43:26.147Z,27.22
2023-06-14T02:44:26.163Z,27.22
2023-06-14T02:45:26.185Z,27.22
2023-06-14T02:46:26.210Z,27.22
2023-06-14T02:47:26.239Z,27.22
2023-06-14T02:48:26.292Z,27.22
2023-06-14T02:49:26.254Z,27.22
2023-06-14T02:50:26.282Z,27.22
2023-06-14T02:51:26.306Z,27.22
2023-06-14T02:52:26.327Z,27.22
2023-06-14T02:53:26.351Z,27.22
2023-06-14T02:54:26.393Z,27.21
2023-06-14T02:55:26.398Z,27.21
2023-06-14T02:56:26.431Z,27.21
2023-06-14T02:57:26.468Z,27.21
2023-06-14T02:58:26.486Z,27.21
2023-06-14T02:59:26.509Z,27.21
2023-06-14T03:00:26.537Z,27.21
2023-06-14T03:01:26.618Z,27.21
2023-06-14T03:02:26.638Z,27.20
2023-06-14T03:03:26.649Z,27.20
2023-06-14T03:04:26.618Z,27.20
2023-06-14T03:05:26.650Z,27.20
2023-06-14T03:06:26.666Z,27.20
2023-06-14T03:07:26.702Z,27.20
2023-06-14T03:08:26.712Z,27.20
2023-06-14T03:09:26.752Z,27.20
2023-06-14T03:10:26.778Z,27.19
2023-06-14T03:11:26.799Z,27.19
2023-06-14T03:12:26.834Z,27.19
2023-06-14T03:13:26.855Z,27.19
2023-06-14T03:14:26.885Z,27.19
2023-06-14T03:15:26.915Z,27.20
2023-06-14T03:16:26.989Z,27.19
2023-06-14T03:17:26.988Z,27.18
2023-06-14T03:18:27.970Z,27.19
2023-06-14T03:19:27.015Z,27.18
2023-06-14T03:20:27.074Z,27.18
2023-06-14T03:21:27.141Z,27.18
2023-06-14T03:22:27.265Z,27.18
2023-06-14T03:23:27.147Z,27.18
2023-06-14T03:24:27.289Z,27.18
2023-06-14T03:25:27.184Z,27.17
2023-06-14T03:26:27.263Z,27.18
2023-06-14T03:27:27.250Z,27.18
2023-06-14T03:28:27.324Z,27.17
2023-06-14T03:29:27.323Z,27.17
2023-06-14T03:30:27.344Z,27.17
2023-06-14T03:31:27.494Z,27.17
2023-06-14T03:32:27.483Z,27.17
2023-06-14T03:33:27.453Z,27.17
2023-06-14T03:34:27.484Z,27.17
2023-06-14T03:35:27.522Z,27.17
2023-06-14T03:36:27.545Z,27.17
2023-06-14T03:37:27.568Z,27.17
2023-06-14T03:38:27.600Z,27.17
2023-06-14T03:39:27.621Z,27.17
2023-06-14T03:40:27.649Z,27.16
2023-06-14T03:41:27.670Z,27.16
2023-06-14T03:42:27.690Z,27.16
2023-06-14T03:43:27.725Z,27.17
2023-06-14T03:44:27.764Z,27.16
2023-06-14T03:45:27.784Z,27.15
2023-06-14T03:46:27.821Z,27.16
2023-06-14T03:47:27.928Z,27.16
2023-06-14T03:48:27.996Z,27.16
2023-06-14T03:49:27.924Z,27.16
2023-06-14T03:50:27.945Z,27.15
2023-06-14T03:51:27.996Z,27.15
2023-06-14T03:52:28.017Z,27.15
2023-06-14T03:53:28.051Z,27.15
2023-06-14T03:56:28.065Z,27.14
2023-06-14T03:57:28.039Z,27.14
2023-06-14T03:58:28.016Z,27.15
2023-06-14T03:59:28.018Z,27.15
2023-06-14T04:00:27.975Z,27.15
2023-06-14T04:01:27.970Z,27.14
2023-06-14T04:02:28.003Z,27.15
2023-06-14T04:03:27.969Z,27.14
2023-06-14T04:04:27.977Z,27.14
2023-06-14T04:05:27.952Z,27.14
2023-06-14T04:06:27.867Z,27.14
2023-06-14T04:07:27.820Z,27.14
2023-06-14T04:08:27.819Z,27.14
2023-06-14T04:09:27.796Z,27.14
2023-06-14T04:10:27.779Z,27.14
2023-06-14T04:11:27.754Z,27.14
2023-06-14T04:12:27.733Z,27.14
2023-06-14T04:13:27.730Z,27.14
2023-06-14T04:14:27.698Z,27.14
2023-06-14T04:15:27.976Z,27.14
2023-06-14T04:16:27.787Z,27.14
2023-06-14T04:17:27.695Z,27.14
2023-06-14T04:18:27.622Z,27.14
2023-06-14T04:19:27.599Z,27.14
2023-06-14T04:20:27.583Z,27.14
2023-06-14T04:21:27.573Z,27.15
2023-06-14T04:22:27.557Z,27.14
2023-06-14T04:23:27.512Z,27.15
2023-06-14T04:24:27.515Z,27.14
2023-06-14T04:25:27.945Z,27.14
2023-06-14T04:26:27.707Z,27.14
2023-06-14T04:27:27.494Z,27.14
2023-06-14T04:28:27.424Z,27.15
2023-06-14T04:29:27.450Z,27.14
2023-06-14T04:30:27.569Z,27.13
2023-06-14T04:31:27.554Z,27.15
2023-06-14T04:32:27.655Z,27.14
2023-06-14T04:33:27.692Z,27.14
2023-06-14T04:34:27.612Z,27.14
2023-06-14T04:35:27.652Z,27.14
2023-06-14T04:36:27.687Z,27.14
2023-06-14T04:37:27.710Z,27.14
2023-06-14T04:38:27.744Z,27.14
2023-06-14T04:39:27.784Z,27.14
2023-06-14T04:40:27.822Z,27.14
2023-06-14T04:41:27.857Z,27.14
2023-06-14T04:42:27.883Z,27.14
2023-06-14T04:43:28.773Z,27.14
2023-06-14T04:44:27.953Z,27.14
2023-06-14T04:45:27.993Z,27.14
2023-06-14T04:46:28.139Z,27.14
2023-06-14T04:47:28.098Z,27.14
2023-06-14T04:48:28.091Z,27.13
2023-06-14T04:49:28.260Z,27.14
2023-06-14T04:50:28.163Z,27.13
2023-06-14T04:51:28.184Z,27.14
2023-06-14T04:52:28.217Z,27.13
2023-06-14T04:53:28.244Z,27.13
2023-06-14T04:54:28.271Z,27.13
2023-06-14T04:55:28.296Z,27.13
2023-06-14T04:56:28.327Z,27.13
2023-06-14T04:57:28.353Z,27.13
2023-06-14T04:58:28.387Z,27.13
2023-06-14T04:59:28.416Z,27.12
2023-06-14T05:00:28.438Z,27.12
2023-06-14T05:01:28.499Z,27.12
2023-06-14T05:02:28.509Z,27.12
2023-06-14T05:03:28.669Z,27.12
2023-06-14T05:04:28.568Z,27.12
2023-06-14T05:05:28.608Z,27.12
2023-06-14T05:06:28.639Z,27.12
2023-06-14T05:07:28.660Z,27.12
2023-06-14T05:08:28.689Z,27.12
2023-06-14T05:09:28.729Z,27.13
2023-06-14T05:10:28.761Z,27.12
2023-06-14T05:11:28.803Z,27.13
2023-06-14T05:12:28.855Z,27.12
2023-06-14T05:13:28.876Z,27.12
2023-06-14T05:14:28.900Z,27.12
2023-06-14T05:15:28.949Z,27.12
2023-06-14T05:16:29.049Z,27.12
2023-06-14T05:17:29.179Z,27.12
2023-06-14T05:18:29.047Z,27.11
2023-06-14T05:19:29.082Z,27.10
2023-06-14T05:20:29.139Z,27.10
2023-06-14T05:21:29.180Z,27.09
2023-06-14T05:22:29.228Z,27.09
2023-06-14T05:23:29.253Z,27.08
2023-06-14T05:24:29.433Z,27.09
2023-06-14T05:25:29.375Z,27.09
2023-06-14T05:26:29.412Z,27.09
2023-06-14T05:27:29.561Z,27.09
2023-06-14T05:28:29.494Z,27.09
2023-06-14T05:29:31.002Z,27.12
2023-06-14T05:30:29.594Z,27.13
2023-06-14T05:31:29.663Z,27.15
2023-06-14T05:32:29.712Z,27.14
2023-06-14T05:33:29.815Z,27.13
2023-06-14T05:34:29.762Z,27.13
2023-06-14T05:35:29.812Z,27.12
2023-06-14T05:36:29.856Z,27.12
2023-06-14T05:37:29.920Z,27.12
2023-06-14T05:38:29.927Z,27.13
2023-06-14T05:39:29.957Z,27.12
2023-06-14T05:40:29.995Z,27.12
2023-06-14T05:41:30.040Z,27.13
2023-06-14T05:42:30.074Z,27.12
2023-06-14T05:43:30.095Z,27.12
2023-06-14T05:44:30.121Z,27.12
2023-06-14T05:45:30.148Z,27.13
2023-06-14T05:46:30.304Z,27.15
2023-06-14T05:47:30.226Z,27.17
2023-06-14T05:48:32.512Z,27.19
2023-06-14T05:49:30.215Z,27.20
2023-06-14T05:50:30.193Z,27.22
2023-06-14T05:51:30.166Z,27.22
2023-06-14T05:52:30.170Z,27.23
2023-06-14T05:53:30.154Z,27.24
2023-06-14T05:54:30.121Z,27.24
2023-06-14T05:55:30.100Z,27.25
2023-06-14T05:56:30.076Z,27.26
2023-06-14T05:57:30.057Z,27.27
2023-06-14T05:58:30.039Z,27.27
2023-06-14T05:59:30.014Z,27.27
2023-06-14T06:00:30.011Z,27.28
2023-06-14T06:01:29.997Z,27.29
2023-06-14T06:02:30.056Z,27.29
2023-06-14T06:03:29.998Z,27.30
2023-06-14T06:04:30.124Z,27.31
2023-06-14T06:05:29.918Z,27.32
2023-06-14T06:06:29.918Z,27.33
2023-06-14T06:07:29.880Z,27.34
2023-06-14T06:08:29.866Z,27.33
2023-06-14T06:09:29.839Z,27.34
2023-06-14T06:10:29.871Z,27.35
2023-06-14T06:11:37.556Z,27.35
2023-06-14T06:12:30.779Z,27.35
2023-06-14T06:13:29.761Z,27.37
2023-06-14T06:14:29.738Z,27.37
2023-06-14T06:15:29.724Z,27.38
2023-06-14T06:16:29.769Z,27.38
2023-06-14T06:17:38.764Z,27.39
2023-06-14T06:18:30.709Z,27.39
2023-06-14T06:19:29.662Z,27.40
2023-06-14T06:20:30.586Z,27.40
2023-06-14T06:21:29.597Z,27.40
2023-06-14T06:22:29.575Z,27.42
2023-06-14T06:23:29.562Z,27.41
2023-06-14T06:24:29.645Z,27.43
2023-06-14T06:25:29.516Z,27.42
2023-06-14T06:26:29.487Z,27.43
2023-06-14T06:27:29.471Z,27.44
2023-06-14T06:28:29.448Z,27.43
2023-06-14T06:29:29.419Z,27.43
2023-06-14T06:30:29.424Z,27.45
2023-06-14T06:31:29.413Z,27.44
2023-06-14T06:32:29.389Z,27.44
2023-06-14T06:33:29.314Z,27.45
2023-06-14T06:34:29.298Z,27.47
2023-06-14T06:35:29.274Z,27.50
2023-06-14T06:36:29.303Z,27.51
2023-06-14T06:37:29.225Z,27.54
2023-06-14T06:38:29.208Z,27.55
2023-06-14T06:39:29.185Z,27.55
2023-06-14T06:40:29.280Z,27.56
2023-06-14T06:41:29.154Z,27.57
2023-06-14T06:42:29.121Z,27.59
2023-06-14T06:43:29.098Z,27.61
2023-06-14T06:44:29.080Z,27.63
2023-06-14T06:45:29.084Z,27.65
2023-06-14T06:46:29.088Z,27.68
2023-06-14T06:47:29.104Z,27.69
2023-06-14T06:48:29.076Z,27.71
2023-06-14T06:49:29.069Z,27.72
2023-06-14T06:50:29.085Z,27.74
2023-06-14T06:51:29.093Z,27.74
2023-06-14T06:52:29.111Z,27.76
2023-06-14T06:53:39.367Z,27.78
2023-06-14T06:54:30.098Z,27.78
2023-06-14T06:55:29.080Z,27.81
2023-06-14T06:56:29.032Z,27.83
2023-06-14T06:57:28.988Z,27.86
2023-06-14T06:58:28.960Z,27.88
2023-06-14T06:59:28.925Z,27.90
2023-06-14T07:00:29.078Z,27.91
2023-06-14T07:01:28.898Z,27.93
2023-06-14T07:02:28.867Z,27.94
2023-06-14T07:03:28.811Z,27.96
2023-06-14T07:04:28.785Z,27.99
2023-06-14T07:05:28.841Z,28.00
2023-06-14T07:06:28.839Z,28.01
2023-06-14T07:07:28.832Z,28.01
2023-06-14T07:08:28.861Z,28.02
2023-06-14T07:09:28.882Z,28.02
2023-06-14T07:10:28.959Z,28.03
2023-06-14T07:11:28.926Z,28.03
2023-06-14T07:12:28.944Z,28.03
2023-06-14T07:13:28.970Z,28.03
2023-06-14T07:14:29.006Z,28.04
2023-06-14T07:15:29.000Z,28.05
2023-06-14T07:16:29.050Z,28.06
2023-06-14T07:17:29.134Z,28.11
2023-06-14T07:18:29.051Z,28.13
2023-06-14T07:19:29.079Z,28.12
2023-06-14T07:20:29.115Z,28.10
2023-06-14T07:21:29.119Z,28.08
2023-06-14T07:22:29.129Z,28.06
2023-06-14T07:23:29.134Z,28.04
2023-06-14T07:24:29.366Z,28.03
2023-06-14T07:25:29.158Z,28.02
2023-06-14T07:26:29.149Z,28.00
2023-06-14T07:27:29.163Z,27.99
2023-06-14T07:28:29.171Z,27.98
2023-06-14T07:29:29.175Z,27.97
2023-06-14T07:30:29.202Z,27.97
2023-06-14T07:31:29.201Z,27.97
2023-06-14T07:32:29.286Z,27.96
2023-06-14T07:33:29.384Z,27.96
2023-06-14T07:34:29.245Z,27.96
2023-06-14T07:35:29.265Z,27.96
2023-06-14T07:36:29.268Z,27.96
2023-06-14T07:37:29.326Z,27.97
2023-06-14T07:38:29.288Z,27.96
2023-06-14T07:39:29.307Z,27.95
2023-06-14T07:40:29.305Z,27.96
2023-06-14T07:41:29.302Z,27.95
2023-06-14T07:42:29.316Z,27.95
2023-06-14T07:43:29.322Z,27.95
2023-06-14T07:44:29.324Z,27.95
2023-06-14T07:45:29.350Z,27.95
2023-06-14T07:46:29.352Z,27.95
2023-06-14T07:47:29.416Z,27.95
2023-06-14T07:48:29.734Z,27.95
2023-06-14T07:49:29.381Z,27.95
2023-06-14T07:50:29.393Z,27.96
2023-06-14T07:51:29.404Z,27.95
2023-06-14T07:52:29.488Z,27.96
2023-06-14T07:53:30.398Z,27.95
2023-06-14T07:54:29.373Z,27.95
2023-06-14T07:55:34.097Z,27.95
2023-06-14T07:56:30.340Z,27.94
2023-06-14T07:57:29.307Z,27.95
2023-06-14T07:58:29.280Z,27.95
2023-06-14T07:59:29.274Z,27.95
2023-06-14T08:00:29.833Z,27.96
2023-06-14T08:01:29.243Z,27.96
2023-06-14T08:02:29.353Z,27.96
2023-06-14T08:03:29.229Z,27.96
2023-06-14T08:04:29.136Z,27.97
2023-06-14T08:05:29.168Z,27.96
2023-06-14T08:06:29.128Z,27.97
2023-06-14T08:07:29.098Z,27.96
2023-06-14T08:08:29.248Z,27.97
2023-06-14T08:09:29.184Z,27.98
2023-06-14T08:10:29.142Z,27.98
2023-06-14T08:11:29.140Z,27.98
2023-06-14T08:12:29.172Z,27.99
2023-06-14T08:13:29.194Z,27.98
2023-06-14T08:14:29.251Z,27.96
2023-06-14T08:15:29.207Z,27.98
2023-06-14T08:16:29.220Z,27.99
2023-06-14T08:17:29.250Z,28.00
2023-06-14T08:18:29.236Z,28.01
2023-06-14T08:19:29.230Z,28.02
2023-06-14T08:20:29.320Z,28.03
2023-06-14T08:21:29.281Z,28.03
2023-06-14T08:22:29.310Z,28.04
2023-06-14T08:23:29.353Z,28.06
2023-06-14T08:24:29.363Z,28.07
2023-06-14T08:25:29.373Z,28.08
2023-06-14T08:26:29.476Z,28.09
2023-06-14T08:27:30.908Z,28.10
2023-06-14T08:28:29.404Z,28.10
2023-06-14T08:29:29.482Z,28.09
2023-06-14T08:30:29.470Z,28.08
2023-06-14T08:31:29.509Z,28.08
2023-06-14T08:32:29.770Z,28.06
2023-06-14T08:33:29.696Z,28.06
2023-06-14T08:34:29.611Z,28.04
2023-06-14T08:35:29.662Z,28.03
2023-06-14T08:36:29.679Z,28.02
2023-06-14T08:37:29.724Z,28.01
2023-06-14T08:38:29.773Z,28.01
2023-06-14T08:39:29.785Z,28.01
2023-06-14T08:40:29.865Z,28.01
2023-06-14T08:41:29.849Z,28.00
2023-06-14T08:42:32.504Z,27.99
2023-06-14T08:43:29.857Z,27.96
2023-06-14T08:44:30.839Z,27.96
2023-06-14T08:45:30.907Z,27.96
2023-06-14T08:46:29.785Z,27.95
2023-06-14T08:47:29.798Z,27.94
2023-06-14T08:48:29.740Z,27.95
2023-06-14T08:49:29.788Z,27.95
2023-06-14T08:50:29.823Z,27.95
2023-06-14T08:51:29.672Z,27.94
2023-06-14T08:52:29.654Z,27.94
2023-06-14T08:53:29.630Z,27.94
2023-06-14T08:54:29.613Z,27.95
2023-06-14T08:55:29.637Z,27.94
2023-06-14T08:56:29.585Z,27.94
2023-06-14T08:57:29.648Z,27.94
2023-06-14T08:58:29.660Z,27.95
2023-06-14T08:59:29.487Z,27.96
2023-06-14T09:00:29.502Z,27.96
2023-06-14T09:01:29.439Z,27.96
2023-06-14T09:02:29.397Z,27.99
2023-06-14T09:03:29.383Z,27.99
2023-06-14T09:04:29.348Z,28.00
2023-06-14T09:05:29.458Z,28.01
2023-06-14T09:06:29.340Z,28.02
2023-06-14T09:07:29.269Z,28.04
2023-06-14T09:08:29.237Z,28.05
2023-06-14T09:09:29.221Z,28.06
2023-06-14T09:10:29.548Z,28.07
2023-06-14T09:11:29.137Z,28.09
2023-06-14T09:12:29.112Z,28.09
2023-06-14T09:13:31.677Z,28.12
2023-06-14T09:14:29.045Z,28.12
2023-06-14T09:15:29.001Z,28.13
2023-06-14T09:16:28.990Z,28.13
2023-06-14T09:17:29.030Z,28.14
2023-06-14T09:18:28.920Z,28.15
2023-06-14T09:19:29.377Z,28.16
2023-06-14T09:20:28.835Z,28.17
2023-06-14T09:21:30.762Z,28.22
2023-06-14T09:22:28.791Z,28.26
2023-06-14T09:23:28.890Z,28.30
2023-06-14T09:24:29.012Z,28.33
2023-06-14T09:25:38.092Z,28.36
2023-06-14T09:26:29.657Z,28.36
2023-06-14T09:27:28.618Z,28.39
2023-06-14T09:28:28.605Z,28.42
2023-06-14T09:29:28.550Z,28.44
2023-06-14T09:30:28.554Z,28.46
2023-06-14T09:31:28.517Z,28.47
2023-06-14T09:32:28.532Z,28.48
2023-06-14T09:33:28.438Z,28.51
2023-06-14T09:34:28.389Z,28.53
2023-06-14T09:35:28.397Z,28.55
2023-06-14T09:36:28.358Z,28.56
2023-06-14T09:37:28.280Z,28.58
2023-06-14T09:38:28.258Z,28.57
2023-06-14T09:39:28.265Z,28.58
2023-06-14T09:40:28.261Z,28.60
2023-06-14T09:41:28.252Z,28.61
2023-06-14T09:42:28.269Z,28.61
2023-06-14T09:43:28.287Z,28.63
2023-06-14T09:44:28.276Z,28.63
2023-06-14T09:45:28.282Z,28.65
2023-06-14T09:46:28.327Z,28.67
2023-06-14T09:47:28.367Z,28.67
2023-06-14T09:48:28.346Z,28.67
2023-06-14T09:49:29.690Z,28.67
2023-06-14T09:50:28.246Z,28.67
2023-06-14T09:51:28.208Z,28.68
2023-06-14T09:52:28.173Z,28.70
2023-06-14T09:53:28.147Z,28.70
2023-06-14T09:54:28.198Z,28.70
2023-06-14T09:55:28.151Z,28.70
2023-06-14T09:56:28.033Z,28.72
2023-06-14T09:57:27.998Z,28.72
2023-06-14T09:58:27.966Z,28.73
2023-06-14T09:59:27.955Z,28.74
2023-06-14T10:00:27.899Z,28.75
2023-06-14T10:01:27.872Z,28.74
2023-06-14T10:02:27.841Z,28.75
2023-06-14T10:03:29.264Z,28.75
2023-06-14T10:04:27.768Z,28.75
2023-06-14T10:05:27.732Z,28.76
2023-06-14T10:06:27.695Z,28.78
2023-06-14T10:07:27.660Z,28.79
2023-06-14T10:08:27.626Z,28.81
2023-06-14T10:09:29.352Z,28.84
2023-06-14T10:10:28.319Z,28.84
2023-06-14T10:11:27.533Z,28.86
2023-06-14T10:12:27.503Z,28.85
2023-06-14T10:13:27.461Z,28.84
2023-06-14T10:14:27.418Z,28.84
2023-06-14T10:15:27.395Z,28.85
2023-06-14T10:16:27.400Z,28.86
2023-06-14T10:17:27.373Z,28.87
2023-06-14T10:18:27.299Z,28.90
2023-06-14T10:19:27.261Z,28.92
2023-06-14T10:20:27.233Z,28.92
2023-06-14T10:21:29.194Z,28.92
2023-06-14T10:22:27.187Z,28.93
2023-06-14T10:23:27.152Z,28.92
2023-06-14T10:24:27.164Z,28.93
2023-06-14T10:25:27.080Z,28.94
2023-06-14T10:26:27.027Z,28.94
2023-06-14T10:27:27.037Z,28.93
2023-06-14T10:28:26.962Z,28.94
2023-06-14T10:29:26.950Z,28.94
2023-06-14T10:30:26.929Z,28.95
2023-06-14T10:31:26.888Z,28.95
2023-06-14T10:32:27.020Z,28.94
2023-06-14T10:33:26.832Z,28.95
2023-06-14T10:34:27.088Z,28.96
2023-06-14T10:35:26.709Z,28.97
2023-06-14T10:36:26.671Z,28.98
2023-06-14T10:37:26.655Z,28.97
2023-06-14T10:38:26.601Z,28.98
2023-06-14T10:39:26.569Z,28.96
2023-06-14T10:40:26.566Z,28.97
2023-06-14T10:41:26.490Z,28.97
2023-06-14T10:42:26.449Z,28.98
2023-06-14T10:43:26.421Z,29.00
2023-06-14T10:44:26.377Z,29.01
2023-06-14T10:45:26.335Z,29.02
2023-06-14T10:46:26.444Z,29.02
2023-06-14T10:47:26.324Z,29.03
2023-06-14T10:48:26.231Z,29.04
2023-06-14T10:49:26.222Z,29.05
2023-06-14T10:50:26.144Z,29.06
2023-06-14T10:51:26.102Z,29.06
2023-06-14T10:52:26.054Z,29.05
2023-06-14T10:53:26.018Z,29.05
2023-06-14T10:54:25.983Z,29.05
2023-06-14T10:55:25.939Z,29.05
2023-06-14T10:56:25.885Z,29.05
2023-06-14T10:57:25.906Z,29.05
2023-06-14T10:58:25.809Z,29.05
2023-06-14T10:59:25.777Z,29.05
2023-06-14T11:00:25.740Z,29.06
2023-06-14T11:01:25.712Z,29.06
2023-06-14T11:02:25.647Z,29.06
2023-06-14T11:03:25.623Z,29.07
2023-06-14T11:04:25.558Z,29.08
2023-06-14T11:05:25.510Z,29.08
2023-06-14T11:06:25.472Z,29.08
2023-06-14T11:07:25.436Z,29.07
2023-06-14T11:08:25.391Z,29.06
2023-06-14T11:09:25.353Z,29.06
2023-06-14T11:10:25.309Z,29.06
2023-06-14T11:11:25.272Z,29.06
2023-06-14T11:12:25.239Z,29.04
2023-06-14T11:13:25.226Z,29.04
2023-06-14T11:14:25.155Z,29.04
2023-06-14T11:15:25.114Z,29.03
2023-06-14T11:16:25.102Z,29.02
2023-06-14T11:17:25.042Z,29.01
2023-06-14T11:18:25.925Z,28.99
2023-06-14T11:19:24.961Z,28.99
2023-06-14T11:20:26.490Z,28.98
2023-06-14T11:21:24.868Z,28.97
2023-06-14T11:22:24.821Z,28.96
2023-06-14T11:23:24.784Z,28.95
2023-06-14T11:24:24.774Z,28.93
2023-06-14T11:25:24.692Z,28.93
2023-06-14T11:26:24.650Z,28.91
2023-06-14T11:27:24.605Z,28.90
2023-06-14T11:28:24.574Z,28.88
2023-06-14T11:29:24.529Z,28.86
2023-06-14T11:30:24.511Z,28.85
2023-06-14T11:31:24.587Z,28.84
2023-06-14T11:32:24.482Z,28.83
2023-06-14T11:33:24.361Z,28.81
2023-06-14T11:34:24.326Z,28.80
2023-06-14T11:35:24.262Z,28.78
2023-06-14T11:36:24.230Z,28.77
2023-06-14T11:37:24.177Z,28.76
2023-06-14T11:38:24.133Z,28.74
2023-06-14T11:39:24.086Z,28.73
2023-06-14T11:40:24.068Z,28.72
2023-06-14T11:41:24.059Z,28.71
2023-06-14T11:42:23.987Z,28.70
2023-06-14T11:43:23.937Z,28.68
2023-06-14T11:44:23.900Z,28.67
2023-06-14T11:45:23.865Z,28.66
2023-06-14T11:46:23.859Z,28.65
2023-06-14T11:47:23.817Z,28.64
2023-06-14T11:48:23.746Z,28.63
2023-06-14T11:49:23.714Z,28.62
2023-06-14T11:50:24.437Z,28.62
2023-06-14T11:51:23.618Z,28.61
2023-06-14T11:52:23.593Z,28.60
2023-06-14T11:53:23.555Z,28.60
2023-06-14T11:54:23.531Z,28.60
2023-06-14T11:55:23.484Z,28.59
2023-06-14T11:56:23.465Z,28.58
2023-06-14T11:57:23.422Z,28.57
2023-06-14T11:58:23.383Z,28.57
2023-06-14T11:59:23.346Z,28.56
2023-06-14T12:00:23.324Z,28.55
2023-06-14T12:01:23.274Z,28.56
2023-06-14T12:02:24.895Z,28.54
2023-06-14T12:03:23.241Z,28.54
2023-06-14T12:04:23.181Z,28.54
2023-06-14T12:05:23.159Z,28.53
2023-06-14T12:06:23.103Z,28.53
2023-06-14T12:07:23.068Z,28.52
2023-06-14T12:08:24.194Z,28.52
2023-06-14T12:09:23.032Z,28.51
2023-06-14T12:10:23.063Z,28.51
2023-06-14T12:11:23.068Z,28.51
2023-06-14T12:12:23.089Z,28.50
2023-06-14T12:13:23.100Z,28.50
2023-06-14T12:14:24.143Z,28.49
2023-06-14T12:15:23.139Z,28.49
2023-06-14T12:16:23.182Z,28.48
2023-06-14T12:17:23.225Z,28.47
2023-06-14T12:18:23.196Z,28.47
2023-06-14T12:19:23.222Z,28.47
2023-06-14T12:20:24.636Z,28.47
2023-06-14T12:21:23.242Z,28.46
2023-06-14T12:22:23.264Z,28.45
2023-06-14T12:23:23.277Z,28.45
2023-06-14T12:24:23.355Z,28.45
2023-06-14T12:25:23.311Z,28.44
2023-06-14T12:26:23.342Z,28.44
2023-06-14T12:27:23.366Z,28.43
2023-06-14T12:28:23.385Z,28.42
2023-06-14T12:29:23.392Z,28.42
2023-06-14T12:30:23.413Z,28.42
2023-06-14T12:31:23.420Z,28.41
2023-06-14T12:32:25.679Z,28.41
2023-06-14T12:33:23.633Z,28.40
2023-06-14T12:34:23.619Z,28.41
2023-06-14T12:35:23.638Z,28.41
2023-06-14T12:36:23.660Z,28.40
2023-06-14T12:37:23.686Z,28.41
2023-06-14T12:38:23.759Z,28.40
2023-06-14T12:39:23.737Z,28.40
2023-06-14T12:40:23.779Z,28.39
2023-06-14T12:41:23.830Z,28.39
2023-06-14T12:42:23.820Z,28.39
2023-06-14T12:43:23.850Z,28.39
2023-06-14T12:44:23.878Z,28.38
2023-06-14T12:45:23.908Z,28.38
2023-06-14T12:46:23.966Z,28.38
2023-06-14T12:47:24.007Z,28.37
2023-06-14T12:48:23.996Z,28.37
2023-06-14T12:49:23.993Z,28.36
2023-06-14T12:50:26.189Z,28.36
2023-06-14T12:51:23.994Z,28.35
2023-06-14T12:52:23.955Z,28.34
2023-06-14T12:53:23.921Z,28.33
2023-06-14T12:54:35.976Z,28.33